createdAt,value
2018-09-03T00:01:55.164Z,7.17
2018-09-03T00:04:24.023Z,8.00
2018-09-03T00:06:52.802Z,7.83
2018-09-03T00:09:21.695Z,7.13
2018-09-03T00:11:50.548Z,7.70
2018-09-03T00:14:19.247Z,7.80
2018-09-03T00:16:48.046Z,8.07
2018-09-03T00:19:16.796Z,7.13
2018-09-03T00:21:45.670Z,7.17
2018-09-03T00:24:14.394Z,7.70
2018-09-03T00:26:43.144Z,7.90
2018-09-03T00:29:11.952Z,8.40
2018-09-03T00:31:45.837Z,7.53
2018-09-03T00:34:19.672Z,8.07
2018-09-03T00:36:53.558Z,7.63
2018-09-03T00:39:27.492Z,7.53
2018-09-03T00:42:01.546Z,7.67
2018-09-03T00:44:35.478Z,7.77
2018-09-03T00:47:08.462Z,7.73
2018-09-03T00:49:37.243Z,7.60
2018-09-03T00:52:06.052Z,8.30
2018-09-03T00:54:36.005Z,7.47
2018-09-03T00:57:04.886Z,8.03
2018-09-03T00:59:33.743Z,8.03
2018-09-03T01:02:02.557Z,7.90
2018-09-03T01:04:31.383Z,7.27
2018-09-03T01:07:00.134Z,8.17
2018-09-03T01:09:28.866Z,8.03
2018-09-03T01:11:57.559Z,8.50
2018-09-03T01:14:26.326Z,8.13
2018-09-03T01:16:55.130Z,8.03
2018-09-03T01:19:23.940Z,7.70
2018-09-03T01:21:52.826Z,7.60
2018-09-03T01:24:21.711Z,7.67
2018-09-03T01:26:50.604Z,7.80
2018-09-03T01:29:19.432Z,7.50
2018-09-03T01:31:48.255Z,7.83
2018-09-03T01:34:16.995Z,7.87
2018-09-03T01:36:45.739Z,8.30
2018-09-03T01:39:14.471Z,8.13
2018-09-03T01:41:43.264Z,7.67
2018-09-03T01:44:12.062Z,7.77
2018-09-03T01:46:40.758Z,8.17
2018-09-03T01:49:09.551Z,8.30
2018-09-03T01:51:38.280Z,8.63
2018-09-03T01:54:07.129Z,8.03
2018-09-03T01:56:35.827Z,7.47
2018-09-03T01:59:04.686Z,8.73
2018-09-03T02:01:33.456Z,7.97
2018-09-03T02:04:02.284Z,8.00
2018-09-03T02:06:31.042Z,8.40
2018-09-03T02:08:59.801Z,8.13
2018-09-03T02:11:28.546Z,8.30
2018-09-03T02:13:57.275Z,8.03
2018-09-03T02:16:26.005Z,8.23
2018-09-03T02:18:54.800Z,8.33
2018-09-03T02:21:23.603Z,8.40
2018-09-03T02:23:52.425Z,8.20
2018-09-03T02:26:21.214Z,8.07
2018-09-03T02:28:50.020Z,8.00
2018-09-03T02:31:19.116Z,8.20
2018-09-03T02:33:47.898Z,8.33
2018-09-03T02:36:16.683Z,8.87
2018-09-03T02:38:45.679Z,8.97
2018-09-03T02:41:14.506Z,8.33
2018-09-03T02:43:43.495Z,8.77
2018-09-03T02:46:12.362Z,7.80
2018-09-03T02:48:41.209Z,7.80
2018-09-03T02:51:09.947Z,7.67
2018-09-03T02:53:38.887Z,8.47
2018-09-03T02:56:07.699Z,8.13
2018-09-03T02:58:36.450Z,8.60
2018-09-03T03:01:05.264Z,8.07
2018-09-03T03:03:34.078Z,7.50
2018-09-03T03:06:02.835Z,7.80
2018-09-03T03:08:31.681Z,7.97
2018-09-03T03:11:00.491Z,8.20
2018-09-03T03:13:29.237Z,8.47
2018-09-03T03:15:57.977Z,7.90
2018-09-03T03:18:26.744Z,8.60
2018-09-03T03:20:55.679Z,8.83
2018-09-03T03:23:24.410Z,8.33
2018-09-03T03:25:53.148Z,8.43
2018-09-03T03:28:21.876Z,9.03
2018-09-03T03:30:50.648Z,8.23
2018-09-03T03:33:19.440Z,7.73
2018-09-03T03:35:48.147Z,8.07
2018-09-03T03:38:16.923Z,8.27
2018-09-03T03:40:45.718Z,8.30
2018-09-03T03:43:14.496Z,8.53
2018-09-03T03:45:43.256Z,8.93
2018-09-03T03:48:12.040Z,8.20
2018-09-03T03:50:40.825Z,7.93
2018-09-03T03:53:09.644Z,8.13
2018-09-03T03:55:38.388Z,7.83
2018-09-03T03:58:07.292Z,8.00
2018-09-03T04:00:36.047Z,8.63
2018-09-03T04:03:04.824Z,7.67
2018-09-03T04:05:33.547Z,8.37
2018-09-03T04:08:02.327Z,8.63
2018-09-03T04:10:31.057Z,8.07
2018-09-03T04:13:04.191Z,7.30
2018-09-03T04:15:33.351Z,8.23
2018-09-03T04:18:02.874Z,8.17
2018-09-03T04:20:31.839Z,8.40
2018-09-03T04:23:00.606Z,8.57
2018-09-03T04:25:29.353Z,8.37
2018-09-03T04:27:58.192Z,8.47
2018-09-03T04:30:26.992Z,8.33
2018-09-03T04:32:56.203Z,8.80
2018-09-03T04:35:25.064Z,8.10
2018-09-03T04:37:53.819Z,8.20
2018-09-03T04:40:22.719Z,8.60
2018-09-03T04:42:51.442Z,8.33
2018-09-03T04:45:21.062Z,8.10
2018-09-03T04:47:49.784Z,8.33
2018-09-03T04:50:18.718Z,8.80
2018-09-03T04:52:47.564Z,8.23
2018-09-03T04:55:16.313Z,8.20
2018-09-03T04:57:45.012Z,8.90
2018-09-03T05:00:15.234Z,8.33
2018-09-03T05:02:44.540Z,8.63
2018-09-03T05:05:13.325Z,8.63
2018-09-03T05:07:42.243Z,9.27
2018-09-03T05:10:11.211Z,8.47
2018-09-03T05:12:40.107Z,8.97
2018-09-03T05:15:08.947Z,8.60
2018-09-03T05:17:37.715Z,8.90
2018-09-03T05:20:06.770Z,8.50
2018-09-03T05:22:35.593Z,9.47
2018-09-03T05:25:04.383Z,8.37
2018-09-03T05:27:33.140Z,9.30
2018-09-03T05:30:02.035Z,9.13
2018-09-03T05:32:30.765Z,9.53
2018-09-03T05:34:59.535Z,8.93
2018-09-03T05:37:28.275Z,8.10
2018-09-03T05:39:56.978Z,9.43
2018-09-03T05:42:25.821Z,8.47
2018-09-03T05:44:54.570Z,8.83
2018-09-03T05:47:23.276Z,8.30
2018-09-03T05:49:52.188Z,8.13
2018-09-03T05:52:20.966Z,8.63
2018-09-03T05:54:49.971Z,8.47
2018-09-03T05:57:18.751Z,8.97
2018-09-03T05:59:47.511Z,8.17
2018-09-03T06:02:16.492Z,8.23
2018-09-03T06:04:45.472Z,7.50
2018-09-03T06:07:14.371Z,8.67
2018-09-03T06:09:43.178Z,8.60
2018-09-03T06:12:12.095Z,9.33
2018-09-03T06:14:40.818Z,7.47
2018-09-03T06:17:09.683Z,8.13
2018-09-03T06:19:38.498Z,8.27
2018-09-03T06:22:07.247Z,9.57
2018-09-03T06:24:36.022Z,8.93
2018-09-03T06:27:04.802Z,7.97
2018-09-03T06:29:33.551Z,9.20
2018-09-03T06:35:33.625Z,9.07
2018-09-03T06:38:02.479Z,9.13
2018-09-03T06:40:31.605Z,9.60
2018-09-03T06:43:00.657Z,8.60
2018-09-03T06:45:29.344Z,8.93
2018-09-03T06:47:58.187Z,8.37
2018-09-03T06:50:27.882Z,8.07
2018-09-03T06:52:56.729Z,7.90
2018-09-03T06:55:25.519Z,11.00
2018-09-03T06:57:54.282Z,8.50
2018-09-03T07:00:23.005Z,8.73
2018-09-03T07:02:51.815Z,8.67
2018-09-03T07:05:20.677Z,8.23
2018-09-03T07:07:49.495Z,12.13
2018-09-03T07:10:18.390Z,9.67
2018-09-03T07:12:47.117Z,8.33
2018-09-03T07:15:15.916Z,8.47
2018-09-03T07:17:44.604Z,8.13
2018-09-03T07:20:13.283Z,7.73
2018-09-03T07:22:42.077Z,8.00
2018-09-03T07:25:10.903Z,8.30
2018-09-03T07:27:40.044Z,8.40
2018-09-03T07:30:08.946Z,8.10
2018-09-03T07:32:38.123Z,8.33
2018-09-03T07:35:06.902Z,8.13
2018-09-03T07:37:35.788Z,8.07
2018-09-03T07:40:04.783Z,7.90
2018-09-03T07:42:33.458Z,8.38
2018-09-03T07:45:02.296Z,8.23
2018-09-03T07:47:31.229Z,7.30
2018-09-03T07:50:00.076Z,7.63
2018-09-03T07:52:28.887Z,7.97
2018-09-03T07:54:57.727Z,7.73
2018-09-03T07:57:26.697Z,14.97
2018-09-03T07:59:55.519Z,8.80
2018-09-03T08:02:25.008Z,7.83
2018-09-03T08:04:53.793Z,7.22
2018-09-03T08:07:22.618Z,7.10
2018-09-03T08:09:51.388Z,7.10
2018-09-03T08:12:20.121Z,6.80
2018-09-03T08:14:48.908Z,6.65
2018-09-03T08:17:17.717Z,7.25
2018-09-03T08:19:46.566Z,7.10
2018-09-03T08:22:15.370Z,7.03
2018-09-03T08:24:44.152Z,6.72
2018-09-03T08:27:12.884Z,8.00
2018-09-03T08:29:41.632Z,7.00
2018-09-03T08:32:10.557Z,6.90
2018-09-03T08:34:39.305Z,6.97
2018-09-03T08:37:08.169Z,7.13
2018-09-03T08:39:36.930Z,6.37
2018-09-03T08:42:06.088Z,7.30
2018-09-03T08:44:34.793Z,7.42
2018-09-03T08:47:03.659Z,7.12
2018-09-03T08:49:32.580Z,8.05
2018-09-03T08:52:01.451Z,6.90
2018-09-03T08:54:30.271Z,6.28
2018-09-03T08:57:00.217Z,6.60
2018-09-03T08:59:28.909Z,7.05
2018-09-03T09:01:57.667Z,6.58
2018-09-03T09:04:26.613Z,6.50
2018-09-03T09:06:55.358Z,6.75
2018-09-03T09:09:24.043Z,7.05
2018-09-03T09:11:52.831Z,6.50
2018-09-03T09:14:21.751Z,6.62
2018-09-03T09:16:50.481Z,6.62
2018-09-03T09:19:19.360Z,6.67
2018-09-03T09:22:18.843Z,6.37
2018-09-03T09:24:47.591Z,6.70
2018-09-03T09:27:16.423Z,7.50
2018-09-03T09:29:45.650Z,6.78
2018-09-03T09:32:14.514Z,6.62
2018-09-03T09:34:43.380Z,6.78
2018-09-03T09:37:15.058Z,6.30
2018-09-03T09:39:44.266Z,6.20
2018-09-03T09:42:13.020Z,6.58
2018-09-03T09:44:41.775Z,7.37
2018-09-03T09:47:10.583Z,6.85
2018-09-03T09:49:39.368Z,6.87
2018-09-03T09:52:08.146Z,7.45
2018-09-03T09:54:36.901Z,6.37
2018-09-03T09:57:05.903Z,6.28
2018-09-03T09:59:34.754Z,6.67
2018-09-03T10:02:03.560Z,7.40
2018-09-03T10:04:32.295Z,6.75
2018-09-03T10:07:01.212Z,7.60
2018-09-03T10:09:30.111Z,6.58
2018-09-03T10:11:58.859Z,7.17
2018-09-03T10:14:27.654Z,6.90
2018-09-03T10:16:56.427Z,6.90
2018-09-03T10:19:25.265Z,6.47
2018-09-03T10:21:54.061Z,7.03
2018-09-03T10:24:22.762Z,7.97
2018-09-03T10:26:51.463Z,7.20
2018-09-03T10:29:20.217Z,7.10
2018-09-03T10:31:48.893Z,9.35
2018-09-03T10:34:17.539Z,7.85
2018-09-03T10:36:46.224Z,6.90
2018-09-03T10:39:14.885Z,7.22
2018-09-03T10:41:43.590Z,9.45
2018-09-03T10:44:12.277Z,6.83
2018-09-03T10:46:41.058Z,7.03
2018-09-03T10:49:09.735Z,7.10
2018-09-03T10:51:38.554Z,7.55
2018-09-03T10:54:07.178Z,8.00
2018-09-03T10:56:35.858Z,7.72
2018-09-03T10:59:04.587Z,7.75
2018-09-03T11:01:33.286Z,7.15
2018-09-03T11:04:02.015Z,7.72
2018-09-03T11:06:30.706Z,7.10
2018-09-03T11:08:59.482Z,7.90
2018-09-03T11:11:28.251Z,8.28
2018-09-03T11:13:56.967Z,7.30
2018-09-03T11:16:25.711Z,8.23
2018-09-03T11:18:54.393Z,7.60
2018-09-03T11:21:23.300Z,7.42
2018-09-03T11:23:51.856Z,7.47
2018-09-03T11:26:20.594Z,7.85
2018-09-03T11:28:49.301Z,8.53
2018-09-03T11:31:18.112Z,7.25
2018-09-03T11:33:46.819Z,8.05
2018-09-03T11:36:15.576Z,7.67
2018-09-03T11:38:44.267Z,7.37
2018-09-03T11:41:13.003Z,7.83
2018-09-03T11:43:41.780Z,7.42
2018-09-03T11:46:10.457Z,7.53
2018-09-03T11:48:39.248Z,10.40
2018-09-03T11:51:07.963Z,8.08
2018-09-03T11:53:36.822Z,7.95
2018-09-03T11:56:05.576Z,8.20
2018-09-03T11:58:34.358Z,8.45
2018-09-03T12:01:03.214Z,9.10
2018-09-03T12:03:31.942Z,9.73
2018-09-03T12:06:00.781Z,10.13
2018-09-03T12:08:29.524Z,8.80
2018-09-03T12:10:58.196Z,12.73
2018-09-03T12:13:26.933Z,12.80
2018-09-03T12:16:11.533Z,10.23
2018-09-03T12:18:42.134Z,11.73
2018-09-03T12:21:11.534Z,10.70
2018-09-03T12:23:40.602Z,11.00
2018-09-03T12:26:09.720Z,11.03
2018-09-03T12:28:38.525Z,10.50
2018-09-03T12:31:07.644Z,11.17
2018-09-03T12:33:36.321Z,12.00
2018-09-03T12:36:05.705Z,11.10
2018-09-03T12:38:34.789Z,11.13
2018-09-03T12:41:03.727Z,10.47
2018-09-03T12:43:32.537Z,12.70
2018-09-03T12:46:03.545Z,11.70
2018-09-03T12:48:32.786Z,11.00
2018-09-03T12:51:02.343Z,12.50
2018-09-03T12:53:31.749Z,13.50
2018-09-03T12:56:00.659Z,14.10
2018-09-03T12:58:29.415Z,13.03
2018-09-03T13:00:58.175Z,11.67
2018-09-03T13:03:26.826Z,13.30
2018-09-03T13:05:55.635Z,14.87
2018-09-03T13:08:24.371Z,13.90
2018-09-03T13:10:53.046Z,13.87
2018-09-03T13:13:21.814Z,13.07
2018-09-03T13:15:50.533Z,11.03
2018-09-03T13:18:19.282Z,10.50
2018-09-03T13:20:47.971Z,10.30
2018-09-03T13:23:16.761Z,11.50
2018-09-03T13:25:45.475Z,11.70
2018-09-03T13:28:14.196Z,12.00
2018-09-03T13:30:42.942Z,12.85
2018-09-03T13:33:11.641Z,13.20
2018-09-03T13:35:40.289Z,14.80
2018-09-03T13:38:09.000Z,13.50
2018-09-03T13:40:38.426Z,12.83
2018-09-03T13:43:07.617Z,11.10
2018-09-03T13:45:36.655Z,11.40
2018-09-03T13:48:05.411Z,11.05
2018-09-03T13:50:34.275Z,11.90
2018-09-03T13:53:03.041Z,12.00
2018-09-03T13:55:31.684Z,10.93
2018-09-03T13:58:00.453Z,11.53
2018-09-03T14:00:29.126Z,11.43
2018-09-03T14:02:57.893Z,10.13
2018-09-03T14:05:26.598Z,11.07
2018-09-03T14:07:55.299Z,13.10
2018-09-03T14:10:23.973Z,11.83
2018-09-03T14:12:52.625Z,12.30
2018-09-03T14:15:21.326Z,11.57
2018-09-03T14:17:50.102Z,11.17
2018-09-03T14:20:18.841Z,12.70
2018-09-03T14:22:47.614Z,12.57
2018-09-03T14:25:16.358Z,12.10
2018-09-03T14:27:45.063Z,12.73
2018-09-03T14:30:13.773Z,11.57
2018-09-03T14:32:42.464Z,12.40
2018-09-03T14:35:11.202Z,13.43
2018-09-03T14:37:39.878Z,13.10
2018-09-03T14:40:08.662Z,13.73
2018-09-03T14:42:37.442Z,13.48
2018-09-03T14:45:06.439Z,12.60
2018-09-03T14:47:35.198Z,13.07
2018-09-03T14:50:03.959Z,12.90
2018-09-03T14:52:32.642Z,11.83
2018-09-03T14:55:01.277Z,11.47
2018-09-03T14:57:29.954Z,10.83
2018-09-03T14:59:58.770Z,10.60
2018-09-03T15:02:27.515Z,9.75
2018-09-03T15:04:56.133Z,9.78
2018-09-03T15:07:24.787Z,9.48
2018-09-03T15:10:24.535Z,11.40
2018-09-03T15:12:53.225Z,10.78
2018-09-03T15:15:21.867Z,11.68
2018-09-03T15:17:50.622Z,10.23
2018-09-03T15:20:19.328Z,10.57
2018-09-03T15:25:14.709Z,11.03
2018-09-03T15:27:43.419Z,10.07
2018-09-03T15:30:12.210Z,10.10
2018-09-03T15:32:41.005Z,12.87
2018-09-03T15:35:09.734Z,11.00
2018-09-03T15:37:38.707Z,10.10
2018-09-03T15:40:07.441Z,9.47
2018-09-03T15:42:36.151Z,9.67
2018-09-03T15:45:04.900Z,9.87
2018-09-03T15:47:33.664Z,9.43
2018-09-03T15:50:02.415Z,8.70
2018-09-03T15:52:31.296Z,9.40
2018-09-03T15:55:00.027Z,9.40
2018-09-03T15:57:28.737Z,8.43
2018-09-03T15:59:57.437Z,10.23
2018-09-03T16:02:29.227Z,9.43
2018-09-03T16:04:58.057Z,10.23
2018-09-03T16:07:26.738Z,8.57
2018-09-03T16:09:55.418Z,8.63
2018-09-03T16:12:24.184Z,8.20
2018-09-03T16:14:52.877Z,9.07
2018-09-03T16:17:21.571Z,9.00
2018-09-03T16:19:50.274Z,12.00
2018-09-03T16:22:19.052Z,8.93
2018-09-03T16:24:47.825Z,10.00
2018-09-03T16:27:16.680Z,9.70
2018-09-03T16:29:45.374Z,9.63
2018-09-03T16:32:14.061Z,8.80
2018-09-03T16:34:44.057Z,9.03
2018-09-03T16:37:12.779Z,9.50
2018-09-03T16:39:41.499Z,8.97
2018-09-03T16:42:10.193Z,9.20
2018-09-03T16:44:38.914Z,9.10
2018-09-03T16:47:08.061Z,9.30
2018-09-03T16:49:36.767Z,9.20
2018-09-03T16:52:05.476Z,8.97
2018-09-03T16:54:34.278Z,9.13
2018-09-03T16:57:02.986Z,9.93
2018-09-03T16:59:31.673Z,10.73
2018-09-03T17:02:00.445Z,11.07
2018-09-03T17:04:29.206Z,10.53
2018-09-03T17:06:58.029Z,10.60
2018-09-03T17:09:26.725Z,10.60
2018-09-03T17:11:55.402Z,12.63
2018-09-03T17:14:24.059Z,12.80
2018-09-03T17:16:52.771Z,11.80
2018-09-03T17:19:21.455Z,12.70
2018-09-03T17:21:50.148Z,13.60
2018-09-03T17:24:18.818Z,12.63
2018-09-03T17:26:47.544Z,12.23
2018-09-03T17:29:16.284Z,12.60
2018-09-03T17:31:45.951Z,12.27
2018-09-03T17:34:14.661Z,13.60
2018-09-03T17:36:43.373Z,14.20
2018-09-03T17:39:12.077Z,13.60
2018-09-03T17:41:40.757Z,13.23
2018-09-03T17:44:09.482Z,13.13
2018-09-03T17:46:38.222Z,13.33
2018-09-03T17:49:06.978Z,12.73
2018-09-03T17:51:35.711Z,13.67
2018-09-03T17:54:04.480Z,13.90
2018-09-03T18:01:09.914Z,13.20
2018-09-03T18:03:38.806Z,14.20
2018-09-03T18:06:07.649Z,15.03
2018-09-03T18:08:36.471Z,15.80
2018-09-03T18:11:05.392Z,13.93
2018-09-03T18:13:34.140Z,14.40
2018-09-03T18:16:02.905Z,14.10
2018-09-03T18:18:31.586Z,14.57
2018-09-03T18:21:00.604Z,13.50
2018-09-03T18:23:29.413Z,14.23
2018-09-03T18:25:58.123Z,14.43
2018-09-03T18:28:26.847Z,15.43
2018-09-03T18:30:55.542Z,14.50
2018-09-03T18:33:24.246Z,15.03
2018-09-03T18:35:53.013Z,12.80
2018-09-03T18:38:21.688Z,13.03
2018-09-03T18:40:50.405Z,14.70
2018-09-03T18:43:19.147Z,14.37
2018-09-03T18:45:48.368Z,16.00
2018-09-03T18:48:17.082Z,14.50
2018-09-03T18:50:46.166Z,13.93
2018-09-03T18:53:14.839Z,13.97
2018-09-03T18:55:43.660Z,15.73
2018-09-03T18:58:13.327Z,13.77
2018-09-03T19:00:42.070Z,14.93
2018-09-03T19:03:11.324Z,15.40
2018-09-03T19:05:40.094Z,16.37
2018-09-03T19:08:08.823Z,16.23
2018-09-03T19:10:37.563Z,14.10
2018-09-03T19:13:06.310Z,12.53
2018-09-03T19:15:34.986Z,12.83
2018-09-03T19:18:03.643Z,11.50
2018-09-03T19:20:32.298Z,12.43
2018-09-03T19:23:01.016Z,12.20
2018-09-03T19:25:30.171Z,12.83
2018-09-03T19:27:58.885Z,12.83
2018-09-03T19:30:27.640Z,13.87
2018-09-03T19:32:56.339Z,15.33
2018-09-03T19:35:25.064Z,15.13
2018-09-03T19:37:53.838Z,14.37
2018-09-03T19:40:22.526Z,14.80
2018-09-03T19:42:51.246Z,14.93
2018-09-03T19:45:19.994Z,15.43
2018-09-03T19:47:48.925Z,14.63
2018-09-03T19:50:17.731Z,14.40
2018-09-03T19:52:46.363Z,13.10
2018-09-03T19:55:15.069Z,14.93
2018-09-03T19:57:43.756Z,14.57
2018-09-03T20:00:18.794Z,14.27
2018-09-03T20:02:47.447Z,15.17
2018-09-03T20:05:16.276Z,15.10
2018-09-03T20:07:45.082Z,16.40
2018-09-03T20:10:13.795Z,16.50
2018-09-03T20:12:42.578Z,21.17
2018-09-03T20:15:14.237Z,17.67
2018-09-03T20:17:43.125Z,18.97
2018-09-03T20:20:11.898Z,16.83
2018-09-03T20:22:40.652Z,17.93
2018-09-03T20:25:09.399Z,17.50
2018-09-03T20:27:38.194Z,16.83
2018-09-03T20:30:07.094Z,17.43
2018-09-03T20:32:35.782Z,18.90
2018-09-03T20:35:04.499Z,17.60
2018-09-03T20:37:33.171Z,17.67
2018-09-03T20:40:01.971Z,17.87
2018-09-03T20:46:02.338Z,18.37
2018-09-03T20:48:31.188Z,19.40
2018-09-03T20:51:00.097Z,20.10
2018-09-03T20:53:28.880Z,19.57
2018-09-03T20:55:57.627Z,19.10
2018-09-03T20:58:26.418Z,17.13
2018-09-03T21:00:55.211Z,17.30
2018-09-03T21:03:24.019Z,20.90
2018-09-03T21:05:52.787Z,18.23
2018-09-03T21:08:21.764Z,17.67
2018-09-03T21:10:50.474Z,24.80
2018-09-03T21:13:19.235Z,24.10
2018-09-03T21:15:47.935Z,21.73
2018-09-03T21:18:16.704Z,21.03
2018-09-03T21:20:45.522Z,20.77
2018-09-03T21:23:14.276Z,19.23
2018-09-03T21:25:43.087Z,19.40
2018-09-03T21:28:11.781Z,21.83
2018-09-03T21:30:40.616Z,23.87
2018-09-03T21:33:09.415Z,22.27
2018-09-03T21:35:38.135Z,19.70
2018-09-03T21:38:06.969Z,22.13
2018-09-03T21:40:35.633Z,21.17
2018-09-03T21:43:04.761Z,21.93
2018-09-03T21:45:33.502Z,24.40
2018-09-03T21:48:02.200Z,22.10
2018-09-03T21:50:30.913Z,20.33
2018-09-03T21:52:59.572Z,20.30
2018-09-03T21:55:28.279Z,21.90
2018-09-03T21:57:57.096Z,23.53
2018-09-03T22:00:25.865Z,21.30
2018-09-03T22:02:54.536Z,21.73
2018-09-03T22:05:23.293Z,20.80
2018-09-03T22:07:52.071Z,21.03
2018-09-03T22:10:20.787Z,20.33
2018-09-03T22:12:49.440Z,23.10
2018-09-03T22:15:18.152Z,24.67
2018-09-03T22:17:46.856Z,23.13
2018-09-03T22:20:15.734Z,22.03
2018-09-03T22:22:44.458Z,21.00
2018-09-03T22:25:13.322Z,20.63
2018-09-03T22:27:42.174Z,21.50
2018-09-03T22:30:11.035Z,20.13
2018-09-03T22:32:39.842Z,20.40
2018-09-03T22:35:08.618Z,24.93
2018-09-03T22:37:37.259Z,21.67
2018-09-03T22:40:06.860Z,21.73
2018-09-03T22:42:35.617Z,22.07
2018-09-03T22:45:04.318Z,23.57
2018-09-03T22:47:33.020Z,22.47
2018-09-03T22:50:01.833Z,24.20
2018-09-03T22:52:30.557Z,22.80
2018-09-03T22:54:59.340Z,23.47
2018-09-03T22:57:28.136Z,22.63
2018-09-03T22:59:56.822Z,21.73
2018-09-03T23:02:25.725Z,23.33
2018-09-03T23:04:54.377Z,23.13
2018-09-03T23:07:23.134Z,23.33
2018-09-03T23:09:51.791Z,22.03
2018-09-03T23:12:20.503Z,22.97
2018-09-03T23:14:49.178Z,25.47
2018-09-03T23:17:17.862Z,26.70
2018-09-03T23:19:46.594Z,25.40
2018-09-03T23:22:15.236Z,25.73
2018-09-03T23:24:44.120Z,26.30
2018-09-03T23:27:12.819Z,26.23
2018-09-03T23:29:41.528Z,26.50
2018-09-03T23:32:10.332Z,27.17
2018-09-03T23:34:39.039Z,23.57
2018-09-03T23:37:07.735Z,24.03
2018-09-03T23:39:36.480Z,24.07
2018-09-03T23:42:05.303Z,25.97
2018-09-03T23:44:34.082Z,24.60
2018-09-03T23:47:02.824Z,24.87
2018-09-03T23:49:31.491Z,21.80
2018-09-03T23:52:00.215Z,25.73
2018-09-03T23:54:28.988Z,24.13
2018-09-03T23:56:57.645Z,25.63
2018-09-03T23:59:26.286Z,23.50
